ΕΜΥ, Εθνική Μετεωρολογική Υπηρεσία - Δελτία Καιρού, Προγνώσεις

ΑΕΡΟΝΑΥΤΙΛΙΑ

GREEK AIRPORTS CODES

TAF LGKR 141700Z 1418/1518 VRB05KT 9999 FEW020=

EUROPEAN AIRPORTS CODES

LFPO 141830Z 32007KT 290V350 9999 FEW036 BKN046 BKN090 22/13Q1015 NOSIG=